Time;durP1;ratioP1;P1;durP2;ratioP2;P2;SDS_P1;SDS_P2;PMS_P1;PMS_P2;Temp;Humidity;BMP_temperature;BMP_pressure;BME280_temperature;BME280_humidity;BME280_pressure;Samples;Min_cycle;Max_cycle;Signal;HPM_P1;HPM_P2
2022/12/16 00:01:18;;;;;;;16.23;14.60;;;13.60;44.20;14.70;100160.00;;;;5007662;28;20226;-43
2022/12/16 00:03:51;;;;;;;16.80;15.20;;;13.50;44.30;14.70;100164.00;;;;5008570;28;20148;-42
2022/12/16 00:06:17;;;;;;;16.00;14.50;;;13.50;44.30;14.60;100153.00;;;;5007660;28;20494;-41
2022/12/16 00:08:43;;;;;;;16.50;14.93;;;13.50;44.20;14.60;100154.00;;;;5008538;28;20179;-42
2022/12/16 00:11:09;;;;;;;15.73;14.23;;;13.40;44.30;14.60;100165.00;;;;5008649;28;20217;-42
2022/12/16 00:13:36;;;;;;;16.07;14.50;;;13.40;44.30;14.50;100162.00;;;;5008687;28;20168;-41
2022/12/16 00:16:13;;;;;;;16.53;14.93;;;13.40;44.30;14.50;100154.00;;;;5008621;28;20648;-42
2022/12/16 00:18:39;;;;;;;15.57;14.07;;;13.40;44.30;14.50;100166.00;;;;5008378;28;20198;-42
2022/12/16 00:21:05;;;;;;;16.90;15.10;;;13.30;44.20;14.40;100160.00;;;;5008408;28;20717;-43
2022/12/16 00:23:30;;;;;;;15.93;14.40;;;13.30;44.40;14.40;100157.00;;;;5008338;28;20254;-41
2022/12/16 00:25:56;;;;;;;15.50;14.00;;;13.20;44.10;14.40;100151.00;;;;5008529;28;20168;-42
2022/12/16 00:28:22;;;;;;;16.20;14.60;;;13.20;44.30;14.30;100152.00;;;;5008623;28;20276;-42
2022/12/16 00:30:50;;;;;;;16.73;15.03;;;13.30;44.30;14.30;100150.00;;;;5007058;28;20286;-42
2022/12/16 00:33:16;;;;;;;16.07;14.53;;;13.20;44.10;14.30;100123.00;;;;4991886;28;20210;-42
2022/12/16 00:35:43;;;;;;;15.30;13.80;;;13.20;44.10;14.30;100149.00;;;;5017561;28;20171;-41
2022/12/16 00:38:08;;;;;;;16.30;14.60;;;13.20;44.90;14.20;100154.00;;;;5012278;28;20698;-42
2022/12/16 00:40:34;;;;;;;15.00;13.53;;;13.10;44.10;14.20;100147.00;;;;5008252;28;20202;-41
2022/12/16 00:43:00;;;;;;;15.97;14.47;;;13.10;44.30;14.20;100147.00;;;;5008509;28;20178;-42
2022/12/16 00:45:26;;;;;;;15.33;13.83;;;13.00;44.20;14.20;100152.00;;;;5011143;28;20174;-43
2022/12/16 00:47:52;;;;;;;16.07;14.47;;;13.00;44.40;14.10;100147.00;;;;5008219;28;20665;-42
2022/12/16 00:50:17;;;;;;;15.70;14.20;;;13.00;44.10;14.10;100153.00;;;;5007793;28;20211;-42
2022/12/16 00:52:44;;;;;;;15.37;13.87;;;13.00;44.10;14.10;100156.00;;;;5008186;28;20184;-42
2022/12/16 00:55:10;;;;;;;15.13;13.63;;;13.00;44.10;14.00;100096.00;;;;5007780;28;20257;-42
2022/12/16 00:57:36;;;;;;;15.43;13.83;;;13.00;44.10;14.00;100160.00;;;;5007928;28;20182;-42
2022/12/16 01:00:04;;;;;;;15.17;13.57;;;12.90;44.00;14.00;100159.00;;;;5007777;28;20191;-42
2022/12/16 01:02:30;;;;;;;14.93;13.40;;;13.00;44.00;14.00;100166.00;;;;5008916;28;20566;-42
2022/12/16 01:04:56;;;;;;;15.40;14.00;;;12.90;43.90;14.00;100166.00;;;;5014711;28;20180;-42
2022/12/16 01:07:21;;;;;;;14.90;13.43;;;12.90;43.90;13.90;100155.00;;;;5015624;28;20550;-42
2022/12/16 01:09:47;;;;;;;14.93;13.47;;;12.90;44.60;13.90;100152.00;;;;5013489;28;20199;-42
2022/12/16 01:12:13;;;;;;;14.20;12.90;;;12.80;43.90;13.90;100151.00;;;;5007637;28;20172;-40
2022/12/16 01:14:38;;;;;;;14.20;12.90;;;12.90;43.70;13.90;100159.00;;;;5008043;28;20669;-41
2022/12/16 01:17:04;;;;;;;15.17;13.57;;;12.80;43.60;13.90;100159.00;;;;5006855;28;20176;-43
2022/12/16 01:19:30;;;;;;;15.90;14.40;;;12.80;43.50;13.60;100163.00;;;;5007961;28;20244;-41
2022/12/16 01:21:55;;;;;;;14.67;13.27;;;12.80;44.10;13.90;100163.00;;;;5007006;28;20315;-42
2022/12/16 01:24:21;;;;;;;14.23;12.73;;;12.80;43.60;13.80;100169.00;;;;5008683;28;20164;-43
2022/12/16 01:26:47;;;;;;;14.80;13.30;;;12.70;43.50;13.80;100177.00;;;;5008142;28;20630;-43
2022/12/16 01:29:13;;;;;;;14.37;13.07;;;12.80;43.50;13.80;100165.00;;;;5007949;28;20192;-42
2022/12/16 01:31:39;;;;;;;14.50;13.10;;;12.70;43.50;13.80;100163.00;;;;5006589;28;20168;-43
2022/12/16 01:34:04;;;;;;;14.73;13.23;;;12.80;43.50;13.80;100169.00;;;;5006215;28;20745;-43
2022/12/16 01:36:30;;;;;;;14.57;13.03;;;12.80;43.20;13.80;100177.00;;;;5007639;28;20198;-42
2022/12/16 01:38:56;;;;;;;14.27;12.97;;;12.80;43.00;13.80;100175.00;;;;5007143;28;20261;-43
2022/12/16 01:41:22;;;;;;;14.40;13.00;;;12.90;42.90;13.90;100169.00;;;;5006503;28;20625;-42
2022/12/16 01:43:47;;;;;;;14.13;12.73;;;13.00;43.00;13.90;100182.00;;;;5007354;28;20255;-42
2022/12/16 01:46:13;;;;;;;14.03;12.63;;;13.10;43.10;13.90;100170.00;;;;5007381;28;20531;-42
2022/12/16 01:49:04;;;;;;;13.37;12.07;;;13.10;42.90;13.90;100173.00;;;;5007758;28;20172;-43
2022/12/16 01:51:41;;;;;;;14.03;12.63;;;13.20;42.90;13.90;100174.00;;;;4989642;28;20171;-40
2022/12/16 01:54:11;;;;;;;13.83;12.47;;;13.20;42.90;13.90;100175.00;;;;5006385;28;20160;-44
2022/12/16 01:56:40;;;;;;;13.63;12.33;;;13.20;43.10;13.90;100176.00;;;;5008348;28;20657;-42
2022/12/16 01:59:07;;;;;;;13.70;12.40;;;13.30;42.90;13.90;100184.00;;;;4993567;28;20356;-43
2022/12/16 02:01:33;;;;;;;13.70;12.40;;;13.30;42.90;14.00;100182.00;;;;4992582;28;20223;-42
2022/12/16 02:04:00;;;;;;;13.80;12.30;;;13.30;42.80;14.00;100184.00;;;;5010842;28;20286;-43
2022/12/16 02:06:27;;;;;;;14.40;12.77;;;13.30;42.90;14.00;100193.00;;;;4993530;28;20172;-42
2022/12/16 02:08:56;;;;;;;14.40;13.00;;;13.30;43.00;13.90;100195.00;;;;5010532;28;20199;-43
2022/12/16 02:12:09;;;;;;;13.10;11.90;;;13.20;43.00;14.00;100174.00;;;;4992982;28;20175;-42
2022/12/16 02:15:02;;;;;;;13.47;12.17;;;13.20;43.10;14.00;100183.00;;;;5009710;28;20184;-42
2022/12/16 02:18:02;;;;;;;15.10;13.60;;;13.10;43.30;14.00;100191.00;;;;4996596;28;20278;-41
2022/12/16 02:21:01;;;;;;;13.80;12.40;;;13.10;43.10;13.90;100166.00;;;;5009010;28;20199;-41
2022/12/16 02:23:42;;;;;;;14.53;13.03;;;13.10;42.90;13.90;100180.00;;;;5008573;28;20778;-42
2022/12/16 02:26:43;;;;;;;14.97;13.47;;;13.20;42.90;13.90;100180.00;;;;5008931;28;20229;-43
2022/12/16 02:29:56;;;;;;;13.50;12.20;;;13.20;43.00;13.90;100184.00;;;;5010400;28;20239;-43
2022/12/16 02:32:39;;;;;;;13.37;12.07;;;13.10;42.90;13.90;100123.00;;;;4996384;28;20171;-41
2022/12/16 02:35:21;;;;;;;13.53;12.23;;;13.10;42.80;13.90;100195.00;;;;4993854;28;20164;-42
2022/12/16 02:37:53;;;;;;;14.37;12.87;;;13.10;42.70;13.90;100191.00;;;;5008880;28;20410;-41
2022/12/16 02:40:24;;;;;;;13.47;12.17;;;13.10;42.80;13.90;100193.00;;;;4992585;28;20721;-41
2022/12/16 02:42:54;;;;;;;13.83;12.47;;;13.10;42.80;13.90;100202.00;;;;4991865;28;20155;-42
2022/12/16 02:45:25;;;;;;;13.43;12.13;;;13.10;42.70;13.90;100213.00;;;;4992782;28;20184;-43
2022/12/16 02:47:51;;;;;;;13.97;12.50;;;13.00;42.60;13.90;100213.00;;;;4993043;28;20571;-41
2022/12/16 02:50:24;;;;;;;13.23;11.93;;;13.00;42.70;13.80;100211.00;;;;5009735;28;20183;-41
2022/12/16 02:52:50;;;;;;;13.37;12.07;;;13.00;42.80;13.80;100211.00;;;;5009360;28;20254;-43
2022/12/16 02:55:16;;;;;;;13.07;11.80;;;13.00;42.80;13.80;100214.00;;;;4992750;28;20200;-42
2022/12/16 02:58:15;;;;;;;13.40;12.13;;;13.00;42.70;13.80;100220.00;;;;4991847;28;20202;-42
2022/12/16 03:01:32;;;;;;;12.67;11.47;;;13.00;42.80;13.80;100213.00;;;;5009361;28;20306;-42
2022/12/16 03:04:26;;;;;;;13.17;11.87;;;13.00;42.80;13.80;100207.00;;;;4988812;28;20192;-42
2022/12/16 03:06:52;;;;;;;13.27;11.93;;;12.90;42.70;13.70;100207.00;;;;5027677;28;20186;-42
2022/12/16 03:09:23;;;;;;;13.53;12.23;;;12.90;42.70;13.80;100219.00;;;;5027553;28;20201;-42
2022/12/16 03:11:48;;;;;;;12.70;11.50;;;12.90;42.70;13.70;100214.00;;;;5027168;28;20738;-42
2022/12/16 03:14:15;;;;;;;12.70;11.40;;;12.90;42.30;13.70;100221.00;;;;5011070;28;20174;-42
2022/12/16 03:16:41;;;;;;;12.73;11.53;;;12.90;42.20;13.60;100218.00;;;;5036933;28;20221;-41
2022/12/16 03:19:07;;;;;;;13.43;12.03;;;12.90;42.40;13.70;100219.00;;;;5039793;28;20583;-41
2022/12/16 03:22:01;;;;;;;13.20;11.90;;;13.00;42.30;13.80;100215.00;;;;5027113;28;20207;-42
2022/12/16 03:24:27;;;;;;;13.37;12.00;;;13.00;42.30;13.80;100182.00;;;;5014826;28;20183;-42
2022/12/16 03:27:06;;;;;;;13.03;11.83;;;13.10;42.30;13.80;100220.00;;;;5027252;28;20167;-43
2022/12/16 03:29:55;;;;;;;12.87;11.67;;;13.10;42.30;13.80;100217.00;;;;5027600;28;20228;-43
2022/12/16 03:32:56;;;;;;;12.77;11.47;;;13.10;42.30;13.50;100216.00;;;;5027215;28;20155;-41
2022/12/16 03:35:57;;;;;;;12.33;11.13;;;13.10;42.30;13.80;100212.00;;;;5026559;28;20218;-41
2022/12/16 03:38:23;;;;;;;13.63;12.13;;;13.10;42.30;13.80;100228.00;;;;5023193;28;20186;-42
2022/12/16 03:40:49;;;;;;;12.30;11.10;;;13.20;42.30;13.80;100218.00;;;;5028735;28;20206;-44
2022/12/16 03:43:14;;;;;;;12.10;11.00;;;13.20;42.40;13.80;100218.00;;;;5026749;28;20545;-41
2022/12/16 03:45:42;;;;;;;12.90;11.60;;;13.20;42.10;13.80;100227.00;;;;5027327;28;20178;-42
2022/12/16 03:48:09;;;;;;;13.23;11.93;;;13.20;42.20;13.80;100218.00;;;;5026897;28;20187;-43
2022/12/16 03:50:35;;;;;;;12.57;11.27;;;13.20;42.10;13.80;100229.00;;;;5028167;28;20571;-42
2022/12/16 03:53:01;;;;;;;12.90;11.60;;;13.20;42.20;13.80;100221.00;;;;5026827;28;20171;-42
2022/12/16 03:55:27;;;;;;;12.57;11.37;;;13.20;42.20;13.80;100223.00;;;;5028118;28;20175;-42
2022/12/16 03:57:53;;;;;;;13.30;12.00;;;13.20;42.20;13.80;100224.00;;;;5028056;28;20648;-41
2022/12/16 04:00:19;;;;;;;12.43;11.23;;;13.10;42.20;13.80;100226.00;;;;5028145;28;20194;-41
2022/12/16 04:02:45;;;;;;;12.40;11.20;;;13.10;42.20;13.80;100232.00;;;;5027514;28;20254;-41
2022/12/16 04:05:10;;;;;;;12.53;11.33;;;13.10;42.30;13.80;100235.00;;;;5028104;28;20186;-41
2022/12/16 04:07:36;;;;;;;12.40;11.20;;;13.10;42.30;13.80;100245.00;;;;5028339;28;20259;-42
2022/12/16 04:10:02;;;;;;;12.37;11.17;;;13.10;42.40;13.80;100233.00;;;;5027533;28;20278;-43
2022/12/16 04:26:16;;;;;;;12.20;11.10;;;13.00;42.40;13.80;100245.00;;;;5006947;28;20248;-43
2022/12/16 04:28:42;;;;;;;12.53;11.33;;;13.10;42.40;13.80;100248.00;;;;5007849;28;20258;-42
2022/12/16 04:31:08;;;;;;;11.33;10.33;;;13.10;43.10;13.80;100254.00;;;;5007648;28;20180;-39
